Time;durP1;ratioP1;P1;durP2;ratioP2;P2;SDS_P1;SDS_P2;PMS_P1;PMS_P2;Temp;Humidity;BMP_temperature;BMP_pressure;BME280_temperature;BME280_humidity;BME280_pressure;Samples;Min_cycle;Max_cycle;Signal;HPM_P1;HPM_P2
2023/12/23 00:01:59;;;;;;;7.50;2.37;;;;;;;6.54;90.30;100544.69;5075032;28;20179;-73
2023/12/23 00:04:25;;;;;;;7.30;2.07;;;;;;;6.57;89.94;100549.78;5074909;28;20248;-73
2023/12/23 00:06:52;;;;;;;7.30;2.40;;;;;;;6.60;90.49;100553.97;5074610;28;20191;-73
2023/12/23 00:09:18;;;;;;;5.07;2.43;;;;;;;6.60;90.42;100551.31;5074497;28;20282;-73
2023/12/23 00:11:44;;;;;;;4.97;2.30;;;;;;;6.59;90.50;100562.91;5074775;28;20602;-73
2023/12/23 00:14:11;;;;;;;6.57;2.10;;;;;;;6.59;90.57;100560.25;5074780;28;20186;-74
2023/12/23 00:16:38;;;;;;;2.93;1.33;;;;;;;6.59;90.54;100552.28;5074729;28;20221;-75
2023/12/23 00:19:05;;;;;;;3.50;1.33;;;;;;;6.67;90.27;100561.28;5074253;28;20305;-75
2023/12/23 00:21:32;;;;;;;9.73;1.90;;;;;;;6.70;90.31;100565.50;5074589;28;20536;-75
2023/12/23 00:23:58;;;;;;;4.93;2.13;;;;;;;6.70;90.14;100566.34;5074543;28;20210;-75
2023/12/23 00:26:25;;;;;;;3.10;1.80;;;;;;;6.72;90.11;100569.69;5074538;28;20189;-75
2023/12/23 00:28:52;;;;;;;6.77;1.53;;;;;;;6.77;90.12;100585.25;5074383;28;20183;-74
2023/12/23 00:31:18;;;;;;;6.77;1.53;;;;;;;6.76;89.84;100579.09;5074307;28;20218;-75
2023/12/23 00:33:47;;;;;;;3.27;1.80;;;;;;;6.75;90.40;100580.06;5073038;28;20197;-75
2023/12/23 00:36:14;;;;;;;6.63;1.53;;;;;;;6.75;90.07;100577.41;5074058;28;20191;-75
2023/12/23 00:38:40;;;;;;;5.40;1.80;;;;;;;6.79;90.24;100577.97;5072711;28;20260;-74
2023/12/23 00:41:07;;;;;;;8.37;2.43;;;;;;;6.82;90.28;100569.75;5074245;28;20224;-75
2023/12/23 00:43:33;;;;;;;9.87;1.73;;;;;;;6.83;90.02;100576.78;5073877;28;20653;-75
2023/12/23 00:46:00;;;;;;;4.33;2.10;;;;;;;6.85;89.76;100574.81;5073901;28;20595;-75
2023/12/23 00:48:26;;;;;;;2.90;2.03;;;;;;;6.89;89.93;100571.75;5072618;28;20255;-75
2023/12/23 00:50:53;;;;;;;2.20;1.77;;;;;;;6.86;89.60;100566.72;5073668;28;20218;-75
2023/12/23 00:53:19;;;;;;;3.87;1.63;;;;;;;6.78;89.85;100557.72;5073768;28;20183;-75
2023/12/23 00:55:46;;;;;;;11.67;2.57;;;;;;;6.84;89.34;100559.81;5072443;28;20228;-75
2023/12/23 00:58:12;;;;;;;2.80;1.43;;;;;;;6.83;89.23;100563.47;5073701;28;20555;-75
2023/12/23 01:00:39;;;;;;;11.50;1.97;;;;;;;6.88;89.55;100574.53;5073569;28;20204;-75
2023/12/23 01:03:05;;;;;;;9.00;1.60;;;;;;;6.85;89.71;100575.66;5073608;28;20197;-75
2023/12/23 01:05:32;;;;;;;10.80;2.00;;;;;;;6.85;89.81;100583.63;5073853;28;20206;-75
2023/12/23 01:07:58;;;;;;;11.60;1.67;;;;;;;6.87;89.61;100575.53;5073564;28;20190;-75
2023/12/23 01:10:26;;;;;;;4.83;2.00;;;;;;;6.92;89.54;100578.59;5073345;28;20211;-72
2023/12/23 01:12:53;;;;;;;4.27;2.40;;;;;;;6.92;89.19;100575.13;5074018;28;20243;-72
2023/12/23 01:15:20;;;;;;;9.57;2.30;;;;;;;6.91;89.70;100560.16;5072154;28;20248;-72
2023/12/23 01:17:47;;;;;;;5.17;1.90;;;;;;;6.87;89.57;100570.22;5073468;28;20232;-72
2023/12/23 01:20:14;;;;;;;6.03;1.70;;;;;;;6.89;89.50;100571.75;5073344;28;20225;-72
2023/12/23 01:22:41;;;;;;;5.43;1.97;;;;;;;6.93;89.58;100577.66;5073625;28;20190;-72
2023/12/23 01:25:08;;;;;;;8.20;2.00;;;;;;;6.84;90.27;100571.31;5073823;28;20515;-72
2023/12/23 01:27:34;;;;;;;5.33;1.60;;;;;;;6.88;89.88;100569.22;5073575;28;20183;-72
2023/12/23 01:30:01;;;;;;;4.17;2.10;;;;;;;6.82;89.69;100562.63;5073173;28;20201;-72
2023/12/23 01:32:27;;;;;;;5.33;1.53;;;;;;;6.88;88.80;100554.13;5073164;28;20202;-72
2023/12/23 01:34:54;;;;;;;4.53;1.33;;;;;;;6.88;88.83;100558.59;5072196;28;20672;-72
2023/12/23 01:37:22;;;;;;;3.10;1.63;;;;;;;6.85;88.48;100558.88;5072181;28;20198;-72
2023/12/23 01:39:48;;;;;;;5.83;1.53;;;;;;;6.78;89.23;100569.19;5073069;28;20713;-72
2023/12/23 01:42:15;;;;;;;1.90;1.10;;;;;;;6.77;87.69;100570.16;5073169;28;20190;-72
2023/12/23 01:44:41;;;;;;;1.27;1.20;;;;;;;6.82;87.44;100570.59;5073111;28;20186;-72
2023/12/23 01:47:08;;;;;;;4.87;1.40;;;;;;;6.81;87.41;100568.06;5073078;28;20654;-72
2023/12/23 01:49:35;;;;;;;2.17;1.57;;;;;;;6.81;86.99;100568.91;5071735;28;20213;-72
2023/12/23 01:52:02;;;;;;;5.17;1.10;;;;;;;6.85;86.75;100564.19;5073219;28;20213;-72
2023/12/23 01:54:29;;;;;;;2.93;1.70;;;;;;;6.85;87.03;100566.84;5073033;28;20228;-72
2023/12/23 01:56:58;;;;;;;6.87;1.60;;;;;;;6.86;87.56;100564.06;5075870;28;20222;-72
2023/12/23 01:59:25;;;;;;;1.57;1.30;;;;;;;6.91;87.33;100561.00;5075759;28;20218;-72
2023/12/23 02:01:52;;;;;;;4.83;1.50;;;;;;;6.93;87.36;100572.31;5077317;28;20246;-72
2023/12/23 02:04:19;;;;;;;4.40;1.80;;;;;;;6.81;88.16;100568.06;5077037;28;20557;-72
2023/12/23 02:06:46;;;;;;;12.23;2.03;;;;;;;6.89;88.30;100570.91;5075697;28;20198;-72
2023/12/23 02:09:12;;;;;;;11.50;1.33;;;;;;;6.85;88.57;100567.69;5077041;28;20218;-72
2023/12/23 02:11:54;;;;;;;5.33;1.67;;;;;;;6.92;88.98;100564.50;5075541;28;20210;-72
2023/12/23 02:14:42;;;;;;;4.33;1.30;;;;;;;6.92;88.85;100567.16;5077109;28;20630;-72
2023/12/23 02:17:09;;;;;;;1.40;1.30;;;;;;;6.81;89.90;100571.56;5076951;28;20194;-72
2023/12/23 02:19:36;;;;;;;12.60;1.83;;;;;;;6.85;89.94;100557.06;5077205;28;20229;-72
2023/12/23 02:22:02;;;;;;;6.17;1.80;;;;;;;6.82;90.25;100557.31;5075354;28;20190;-72
2023/12/23 02:24:29;;;;;;;15.27;1.97;;;;;;;6.78;90.79;100552.41;5075365;28;20639;-72
2023/12/23 02:27:02;;;;;;;3.53;1.33;;;;;;;6.79;90.91;100546.09;5075596;28;20198;-72
2023/12/23 02:29:31;;;;;;;5.70;1.93;;;;;;;6.88;90.64;100543.50;5075229;28;20323;-72
2023/12/23 02:32:01;;;;;;;5.50;1.90;;;;;;;6.89;90.73;100537.22;5076421;28;20206;-72
2023/12/23 02:34:28;;;;;;;2.40;1.50;;;;;;;6.90;90.99;100540.72;5076388;28;20277;-72
2023/12/23 02:36:54;;;;;;;6.93;1.87;;;;;;;6.85;91.56;100527.81;5076409;28;20235;-72
2023/12/23 02:39:21;;;;;;;1.83;1.73;;;;;;;6.86;91.57;100532.16;5076483;28;20674;-72
2023/12/23 02:41:47;;;;;;;10.13;2.03;;;;;;;6.90;91.81;100519.47;5076297;28;20186;-72
2023/12/23 02:44:14;;;;;;;9.07;2.33;;;;;;;6.81;91.85;100517.59;5076220;28;20216;-72
2023/12/23 02:46:40;;;;;;;4.23;1.87;;;;;;;6.81;92.40;100507.81;5076209;28;20190;-72
2023/12/23 02:49:07;;;;;;;7.40;2.23;;;;;;;6.77;92.83;100501.06;5076049;28;20385;-72
2023/12/23 02:51:33;;;;;;;6.83;2.23;;;;;;;6.80;92.74;100500.81;5076614;28;20195;-72
2023/12/23 02:54:00;;;;;;;15.20;2.70;;;;;;;6.81;92.92;100481.25;5076059;28;20674;-72
2023/12/23 02:56:27;;;;;;;7.57;3.13;;;;;;;6.82;93.19;100476.78;5076249;28;20209;-72
2023/12/23 02:58:54;;;;;;;14.60;3.53;;;;;;;6.81;93.49;100465.28;5075944;28;20190;-72
2023/12/23 03:01:21;;;;;;;5.87;3.27;;;;;;;6.81;93.94;100462.63;5075941;28;20270;-72
2023/12/23 03:03:47;;;;;;;6.37;2.67;;;;;;;6.74;94.03;100463.31;5075905;28;20194;-74
2023/12/23 03:06:14;;;;;;;9.77;2.50;;;;;;;6.81;94.04;100464.44;5075301;28;20178;-74
2023/12/23 03:08:41;;;;;;;9.80;2.60;;;;;;;6.84;94.05;100469.50;5074074;28;20194;-74
2023/12/23 03:11:08;;;;;;;8.47;2.50;;;;;;;6.80;94.50;100460.09;5075958;28;20221;-74
2023/12/23 03:13:35;;;;;;;5.07;3.20;;;;;;;6.80;94.94;100455.63;5074418;28;20658;-73
2023/12/23 03:16:02;;;;;;;11.53;3.47;;;;;;;6.68;95.95;100456.72;5075634;28;20650;-72
2023/12/23 03:18:28;;;;;;;5.90;3.50;;;;;;;6.70;96.20;100449.47;5075600;28;20190;-72
2023/12/23 03:20:55;;;;;;;11.23;3.63;;;;;;;6.74;96.44;100444.72;5075455;28;20277;-72
2023/12/23 03:23:21;;;;;;;8.13;3.40;;;;;;;6.74;96.54;100439.41;5075809;28;20209;-72
2023/12/23 03:25:49;;;;;;;7.33;3.93;;;;;;;6.79;96.50;100434.50;5075457;28;20232;-73
2023/12/23 03:28:15;;;;;;;9.03;6.40;;;;;;;6.75;97.28;100420.66;5076027;28;20270;-75
2023/12/23 03:30:42;;;;;;;8.70;8.00;;;;;;;6.78;97.37;100411.59;5075374;28;20216;-75
2023/12/23 03:33:08;;;;;;;15.90;11.00;;;;;;;6.79;97.78;100408.78;5075325;28;20281;-75
2023/12/23 03:35:37;;;;;;;16.97;10.13;;;;;;;6.89;97.82;100396.38;5074119;28;20289;-77
2023/12/23 03:38:03;;;;;;;13.43;9.30;;;;;;;6.86;98.13;100383.38;5075301;28;20248;-76
2023/12/23 03:40:30;;;;;;;9.27;7.83;;;;;;;6.91;98.40;100377.66;5075692;28;20210;-75
2023/12/23 03:42:56;;;;;;;7.73;7.03;;;;;;;6.92;98.77;100378.50;5075487;28;20174;-75
2023/12/23 03:45:23;;;;;;;7.97;7.13;;;;;;;6.92;98.94;100362.56;5075215;28;20182;-75
2023/12/23 03:47:50;;;;;;;8.47;7.53;;;;;;;6.86;99.02;100358.63;5075364;28;20209;-75
2023/12/23 03:50:16;;;;;;;14.10;9.57;;;;;;;6.87;99.13;100363.78;5073699;28;20217;-75
2023/12/23 03:52:43;;;;;;;10.03;7.90;;;;;;;6.94;99.17;100369.41;5074931;28;20207;-75
2023/12/23 03:55:11;;;;;;;9.13;8.43;;;;;;;6.89;99.77;100355.69;5074941;28;20186;-75
2023/12/23 03:57:37;;;;;;;10.27;8.60;;;;;;;6.92;100.00;100349.25;5075160;28;20191;-75
2023/12/23 04:00:05;;;;;;;13.60;9.20;;;;;;;7.02;99.94;100350.94;5074795;28;20210;-74
2023/12/23 04:02:39;;;;;;;11.47;9.60;;;;;;;7.06;100.00;100349.69;5075071;28;20163;-74
2023/12/23 04:05:06;;;;;;;14.37;10.13;;;;;;;7.09;100.00;100338.78;5073468;28;20194;-74
2023/12/23 04:07:32;;;;;;;11.70;9.83;;;;;;;7.18;100.00;100339.75;5073415;28;20200;-74
2023/12/23 04:09:59;;;;;;;14.20;9.70;;;;;;;7.27;100.00;100334.44;5073308;28;20284;-74
2023/12/23 04:12:26;;;;;;;13.43;10.80;;;;;;;7.28;100.00;100332.63;5073253;28;20211;-74
2023/12/23 04:14:52;;;;;;;14.77;11.27;;;;;;;7.37;100.00;100320.31;5074806;28;20210;-74
2023/12/23 04:17:18;;;;;;;12.53;10.70;;;;;;;7.43;100.00;100314.41;5072896;28;20202;-74
2023/12/23 04:19:45;;;;;;;21.27;11.77;;;;;;;7.48;100.00;100318.34;5074298;28;20226;-74
2023/12/23 04:22:12;;;;;;;16.10;11.07;;;;;;;7.53;100.00;100315.25;5074681;28;20190;-74
2023/12/23 04:24:38;;;;;;;11.47;9.47;;;;;;;7.68;100.00;100300.53;5073032;28;20685;-74
2023/12/23 04:27:05;;;;;;;15.10;9.53;;;;;;;7.71;100.00;100300.25;5074356;28;20178;-74
2023/12/23 04:29:32;;;;;;;11.90;7.57;;;;;;;7.81;100.00;100288.56;5072938;28;20693;-74
2023/12/23 04:31:58;;;;;;;22.70;8.27;;;;;;;7.88;100.00;100296.00;5072830;28;20686;-76
2023/12/23 04:34:25;;;;;;;8.83;7.90;;;;;;;7.95;99.71;100294.41;5072891;28;20627;-76
2023/12/23 04:36:51;;;;;;;8.53;6.70;;;;;;;7.98;99.71;100276.34;5072835;28;20233;-72
2023/12/23 04:39:18;;;;;;;9.13;6.60;;;;;;;8.04;99.11;100282.91;5074292;28;20259;-73
2023/12/23 04:41:48;;;;;;;6.77;5.77;;;;;;;8.09;98.81;100281.50;5073035;28;20646;-73
2023/12/23 04:44:16;;;;;;;8.20;6.47;;;;;;;8.12;98.84;100278.53;5072776;28;20300;-73
2023/12/23 04:46:46;;;;;;;8.60;5.70;;;;;;;8.13;98.49;100280.22;5072602;28;20646;-73
2023/12/23 04:49:12;;;;;;;10.17;6.83;;;;;;;8.20;98.12;100291.09;5073751;28;20210;-73
2023/12/23 04:51:39;;;;;;;7.47;6.63;;;;;;;8.22;97.42;100276.66;5072734;28;20210;-72
2023/12/23 04:54:06;;;;;;;10.60;6.50;;;;;;;8.28;96.96;100270.72;5073788;28;20189;-72
2023/12/23 04:56:32;;;;;;;22.20;9.63;;;;;;;8.29;96.55;100276.94;5074281;28;20183;-73
2023/12/23 04:58:58;;;;;;;15.07;9.10;;;;;;;8.33;96.68;100282.81;5072947;28;20202;-73
2023/12/23 05:01:25;;;;;;;10.17;9.40;;;;;;;8.34;96.19;100266.69;5073223;28;20202;-73
2023/12/23 05:03:53;;;;;;;13.30;10.37;;;;;;;8.33;95.85;100265.00;5072578;28;20198;-72
2023/12/23 05:06:19;;;;;;;11.10;10.13;;;;;;;8.40;95.09;100250.09;5073579;28;20187;-72
2023/12/23 05:08:46;;;;;;;21.60;11.13;;;;;;;8.42;94.79;100250.78;5073424;28;20182;-73
2023/12/23 05:11:12;;;;;;;18.37;8.97;;;;;;;8.44;94.48;100240.00;5074035;28;20183;-72
2023/12/23 05:13:38;;;;;;;16.30;8.03;;;;;;;8.47;94.08;100248.53;5072371;28;20268;-72
2023/12/23 05:16:06;;;;;;;15.10;6.50;;;;;;;8.45;93.76;100247.81;5072185;28;20205;-73
2023/12/23 05:18:32;;;;;;;8.50;7.00;;;;;;;8.50;93.67;100258.03;5073511;28;20194;-73
2023/12/23 05:20:59;;;;;;;11.73;7.33;;;;;;;8.50;93.25;100250.03;5072105;28;20811;-73
2023/12/23 05:23:25;;;;;;;7.43;5.77;;;;;;;8.51;93.20;100252.56;5072118;28;20186;-73
2023/12/23 05:25:54;;;;;;;11.63;6.50;;;;;;;8.52;93.42;100246.25;5071992;28;20198;-73
2023/12/23 05:28:21;;;;;;;7.10;6.60;;;;;;;8.48;93.59;100238.72;5072198;28;20247;-73
2023/12/23 05:30:48;;;;;;;8.77;6.17;;;;;;;8.48;93.21;100242.22;5072489;28;20582;-73
2023/12/23 05:33:14;;;;;;;10.30;7.60;;;;;;;8.50;93.41;100242.03;5073136;28;20234;-73
2023/12/23 05:35:41;;;;;;;7.50;6.80;;;;;;;8.48;93.67;100228.06;5073505;28;20182;-73
2023/12/23 05:38:07;;;;;;;17.83;7.43;;;;;;;8.47;93.45;100237.03;5073173;28;20295;-73
2023/12/23 05:40:34;;;;;;;13.07;7.80;;;;;;;8.43;93.81;100248.97;5073176;28;20213;-73
2023/12/23 05:43:02;;;;;;;8.63;5.97;;;;;;;8.45;93.98;100249.63;5073176;28;20588;-76
2023/12/23 05:45:28;;;;;;;9.67;5.97;;;;;;;8.43;93.93;100262.28;5073509;28;20228;-73
2023/12/23 05:47:55;;;;;;;7.27;5.10;;;;;;;8.45;93.57;100260.28;5073396;28;20541;-74
2023/12/23 05:50:21;;;;;;;9.60;5.67;;;;;;;8.48;93.38;100247.53;5073825;28;20207;-75
2023/12/23 05:52:48;;;;;;;4.93;4.60;;;;;;;8.45;93.27;100254.97;5072950;28;20622;-76
2023/12/23 05:55:15;;;;;;;7.03;5.03;;;;;;;8.50;93.33;100244.72;5072986;28;20186;-76
2023/12/23 05:57:41;;;;;;;12.60;5.93;;;;;;;8.50;93.02;100256.22;5073168;28;20186;-76
2023/12/23 06:00:08;;;;;;;8.73;4.60;;;;;;;8.49;93.18;100253.69;5072904;28;20218;-76
2023/12/23 06:02:38;;;;;;;5.73;5.40;;;;;;;8.49;93.33;100245.69;5072892;28;20650;-76
2023/12/23 06:05:05;;;;;;;7.50;4.53;;;;;;;8.44;93.63;100251.50;5073102;28;20229;-76
2023/12/23 06:07:31;;;;;;;8.83;4.10;;;;;;;8.50;93.03;100247.38;5073016;28;20198;-76
2023/12/23 06:09:58;;;;;;;15.23;4.17;;;;;;;8.49;93.29;100253.69;5072765;28;20268;-75
2023/12/23 06:12:24;;;;;;;6.53;5.07;;;;;;;8.46;92.98;100254.84;5072964;28;20230;-76
2023/12/23 06:14:53;;;;;;;8.97;5.03;;;;;;;8.48;93.35;100257.34;5072771;28;20183;-76
2023/12/23 06:17:19;;;;;;;13.67;5.50;;;;;;;8.53;92.23;100255.91;5072660;28;20198;-76
2023/12/23 06:19:46;;;;;;;9.50;4.23;;;;;;;8.50;93.59;100255.38;5073305;28;20264;-75
2023/12/23 06:22:12;;;;;;;6.30;4.57;;;;;;;8.47;93.13;100247.69;5073258;28;20183;-75
2023/12/23 06:24:39;;;;;;;8.33;4.17;;;;;;;8.51;92.75;100249.06;5072710;28;20256;-75
2023/12/23 06:27:05;;;;;;;7.47;4.30;;;;;;;8.54;92.96;100243.41;5072675;28;20194;-76
2023/12/23 06:29:32;;;;;;;6.53;3.87;;;;;;;8.53;92.85;100223.13;5072595;28;20819;-77
2023/12/23 06:31:59;;;;;;;8.30;3.93;;;;;;;8.53;92.72;100223.94;5072597;28;20217;-77
2023/12/23 06:34:26;;;;;;;6.20;3.43;;;;;;;8.55;93.08;100232.63;5073441;28;20233;-77
2023/12/23 06:36:52;;;;;;;3.93;3.50;;;;;;;8.55;92.80;100223.78;5072623;28;20244;-77
2023/12/23 06:39:19;;;;;;;4.53;3.93;;;;;;;8.57;92.61;100216.50;5072752;28;20210;-77
2023/12/23 06:41:46;;;;;;;3.97;3.57;;;;;;;8.58;92.34;100237.66;5074356;28;20240;-77
2023/12/23 06:44:13;;;;;;;4.43;4.07;;;;;;;8.59;92.71;100239.31;5076200;28;20195;-77
2023/12/23 06:46:40;;;;;;;11.20;4.03;;;;;;;8.60;92.90;100227.69;5076494;28;20553;-77
2023/12/23 06:49:06;;;;;;;4.10;3.47;;;;;;;8.58;92.72;100231.47;5076173;28;20234;-77
2023/12/23 06:51:33;;;;;;;12.30;5.17;;;;;;;8.58;92.57;100219.00;5076443;28;20183;-77
2023/12/23 06:53:59;;;;;;;7.03;3.83;;;;;;;8.55;93.23;100221.13;5076015;28;20686;-77
2023/12/23 06:56:26;;;;;;;6.03;4.10;;;;;;;8.49;93.60;100229.72;5076824;28;20643;-77
2023/12/23 06:58:52;;;;;;;9.40;4.40;;;;;;;8.50;93.63;100216.25;5075975;28;20198;-77
2023/12/23 07:01:20;;;;;;;9.07;6.03;;;;;;;8.53;93.76;100225.78;5075900;28;20187;-77
2023/12/23 07:03:46;;;;;;;6.23;4.20;;;;;;;8.50;93.52;100234.06;5075915;28;20224;-77
2023/12/23 07:06:13;;;;;;;16.07;5.13;;;;;;;8.47;93.97;100213.91;5076410;28;20191;-77
2023/12/23 07:08:40;;;;;;;5.60;4.67;;;;;;;8.47;93.93;100221.03;5075808;28;20186;-74
2023/12/23 07:11:09;;;;;;;8.77;4.60;;;;;;;8.48;94.08;100218.25;5076028;28;20187;-74
2023/12/23 07:13:36;;;;;;;4.77;4.43;;;;;;;8.50;93.91;100213.59;5075647;28;20678;-74
2023/12/23 07:16:03;;;;;;;10.67;4.13;;;;;;;8.49;94.08;100213.72;5075978;28;20526;-74
2023/12/23 07:18:30;;;;;;;4.70;4.30;;;;;;;8.50;94.04;100234.06;5075712;28;20198;-74
2023/12/23 07:20:56;;;;;;;10.50;4.47;;;;;;;8.45;94.45;100210.53;5075538;28;20234;-74
2023/12/23 07:23:23;;;;;;;7.50;3.93;;;;;;;8.43;94.68;100225.84;5075610;28;20594;-74
2023/12/23 07:25:49;;;;;;;8.07;4.53;;;;;;;8.46;94.96;100228.19;5075732;28;20194;-74
2023/12/23 07:28:16;;;;;;;14.40;4.03;;;;;;;8.46;94.97;100222.03;5075476;28;20723;-74
2023/12/23 07:30:44;;;;;;;6.40;4.03;;;;;;;8.41;95.28;100230.47;5075330;28;20202;-74
2023/12/23 07:33:13;;;;;;;5.50;3.83;;;;;;;8.43;94.94;100217.84;5075317;28;20662;-74
2023/12/23 07:35:39;;;;;;;9.13;4.50;;;;;;;8.39;95.33;100218.28;5075357;28;20186;-74
2023/12/23 07:38:06;;;;;;;11.50;4.63;;;;;;;8.42;95.25;100223.31;5075419;28;20194;-74
2023/12/23 07:40:32;;;;;;;10.87;4.83;;;;;;;8.44;94.98;100221.34;5075118;28;20215;-74
2023/12/23 07:43:02;;;;;;;10.60;4.67;;;;;;;8.47;95.05;100237.03;5075467;28;20232;-74
2023/12/23 07:45:31;;;;;;;11.67;4.07;;;;;;;8.46;95.36;100240.66;5075653;28;20175;-74
2023/12/23 07:47:57;;;;;;;5.23;4.47;;;;;;;8.46;95.36;100235.34;5075065;28;20198;-74
2023/12/23 07:50:24;;;;;;;11.17;4.63;;;;;;;8.43;95.71;100246.31;5075000;28;20198;-74
2023/12/23 07:52:50;;;;;;;11.23;4.53;;;;;;;8.48;95.17;100244.03;5074150;28;20194;-74
2023/12/23 07:55:17;;;;;;;10.37;4.40;;;;;;;8.48;95.24;100246.69;5075258;28;20251;-74
2023/12/23 07:57:45;;;;;;;7.93;4.93;;;;;;;8.50;95.19;100239.38;5075207;28;20190;-74
2023/12/23 08:00:13;;;;;;;9.43;5.07;;;;;;;8.47;95.46;100229.88;5074797;28;20226;-74
2023/12/23 08:02:39;;;;;;;5.20;4.60;;;;;;;8.50;94.96;100228.72;5075095;28;20183;-74
2023/12/23 08:05:06;;;;;;;8.50;5.00;;;;;;;8.51;95.37;100241.06;5074998;28;20236;-73
2023/12/23 08:07:36;;;;;;;18.07;8.10;;;;;;;8.52;95.32;100250.75;5074708;28;20658;-74
2023/12/23 08:10:04;;;;;;;12.40;5.10;;;;;;;8.57;94.75;100259.13;5074592;28;20210;-74
2023/12/23 08:12:30;;;;;;;14.37;4.77;;;;;;;8.56;94.76;100252.13;5074861;28;20743;-74
2023/12/23 08:14:57;;;;;;;16.57;4.93;;;;;;;8.60;94.58;100257.00;5075183;28;20187;-74
2023/12/23 08:17:23;;;;;;;5.43;5.03;;;;;;;8.60;94.58;100267.66;5074471;28;20240;-74
2023/12/23 08:19:50;;;;;;;8.07;4.63;;;;;;;8.58;94.81;100261.63;5074445;28;20199;-74
2023/12/23 08:22:16;;;;;;;7.13;4.43;;;;;;;8.56;95.45;100260.94;5074450;28;20191;-74
2023/12/23 08:24:43;;;;;;;7.33;4.80;;;;;;;8.52;95.53;100267.56;5074456;28;20187;-74
2023/12/23 08:27:11;;;;;;;10.73;4.30;;;;;;;8.53;95.78;100263.09;5074604;28;20191;-74
2023/12/23 08:29:39;;;;;;;4.77;4.30;;;;;;;8.52;95.75;100272.91;5074236;28;20214;-75
2023/12/23 08:32:06;;;;;;;11.80;4.67;;;;;;;8.54;95.18;100256.75;5074212;28;20241;-74
2023/12/23 08:34:32;;;;;;;13.40;4.23;;;;;;;8.53;95.43;100252.44;5074097;28;20221;-74
2023/12/23 08:36:58;;;;;;;10.87;3.93;;;;;;;8.58;95.33;100252.78;5074128;28;20597;-74
2023/12/23 08:39:25;;;;;;;13.43;5.37;;;;;;;8.61;94.74;100279.97;5074177;28;20221;-74
2023/12/23 08:41:51;;;;;;;4.70;4.17;;;;;;;8.62;94.59;100267.47;5074255;28;20274;-74
2023/12/23 08:44:21;;;;;;;6.00;4.67;;;;;;;8.61;94.26;100277.28;5074265;28;20182;-74
2023/12/23 08:46:47;;;;;;;8.00;4.70;;;;;;;8.67;94.28;100271.38;5074045;28;20194;-74
2023/12/23 08:49:14;;;;;;;9.00;4.50;;;;;;;8.66;94.24;100258.19;5074160;28;20210;-73
2023/12/23 08:51:40;;;;;;;10.93;3.80;;;;;;;8.68;94.29;100265.06;5073897;28;20296;-73
2023/12/23 08:54:07;;;;;;;11.20;3.77;;;;;;;8.65;94.31;100269.88;5072643;28;20206;-74
2023/12/23 08:56:33;;;;;;;6.17;4.13;;;;;;;8.69;93.56;100277.41;5074050;28;20186;-74
2023/12/23 08:59:00;;;;;;;4.47;4.07;;;;;;;8.77;93.17;100279.31;5073802;28;20580;-73
2023/12/23 09:01:26;;;;;;;7.80;3.67;;;;;;;8.79;93.09;100277.31;5074002;28;20189;-74
2023/12/23 09:03:53;;;;;;;5.67;4.00;;;;;;;8.81;93.26;100285.19;5074171;28;20183;-74
2023/12/23 09:06:19;;;;;;;9.40;3.20;;;;;;;8.82;92.88;100276.19;5073869;28;20192;-73
2023/12/23 09:08:46;;;;;;;12.70;3.70;;;;;;;8.87;92.47;100282.72;5073742;28;20183;-75
2023/12/23 09:11:12;;;;;;;8.83;3.27;;;;;;;8.84;92.56;100280.38;5073484;28;20182;-74
2023/12/23 09:13:39;;;;;;;7.10;3.43;;;;;;;8.90;92.54;100276.28;5073588;28;20210;-73
2023/12/23 09:16:05;;;;;;;4.20;3.33;;;;;;;8.94;91.39;100285.66;5073716;28;20190;-74
2023/12/23 09:18:32;;;;;;;6.90;3.80;;;;;;;9.01;91.05;100284.03;5073444;28;20650;-74
2023/12/23 09:20:59;;;;;;;11.17;3.37;;;;;;;9.01;91.02;100292.88;5073760;28;20272;-73
2023/12/23 09:23:25;;;;;;;3.73;2.93;;;;;;;9.04;90.82;100289.06;5073624;28;20191;-73
2023/12/23 09:25:52;;;;;;;11.27;3.60;;;;;;;9.02;90.67;100297.22;5073688;28;20189;-73
2023/12/23 09:28:19;;;;;;;3.17;2.93;;;;;;;9.07;90.17;100281.63;5073358;28;20321;-73
2023/12/23 09:30:45;;;;;;;4.83;2.60;;;;;;;9.07;90.39;100286.09;5073202;28;20694;-74
2023/12/23 09:33:12;;;;;;;6.17;3.40;;;;;;;9.11;90.10;100285.66;5072386;28;20633;-73
2023/12/23 09:35:38;;;;;;;3.93;3.53;;;;;;;9.13;89.83;100304.16;5073777;28;20305;-73
2023/12/23 09:38:05;;;;;;;7.53;3.70;;;;;;;9.11;89.67;100290.16;5073386;28;20189;-73
2023/12/23 09:40:31;;;;;;;7.33;3.47;;;;;;;9.18;88.81;100292.03;5073439;28;20252;-74
2023/12/23 09:42:59;;;;;;;3.27;2.97;;;;;;;9.20;88.70;100301.72;5073802;28;20189;-73
2023/12/23 09:45:26;;;;;;;3.87;2.63;;;;;;;9.24;88.48;100303.94;5073075;28;20179;-73
2023/12/23 09:47:52;;;;;;;9.83;3.60;;;;;;;9.26;88.18;100304.59;5073206;28;20216;-73
2023/12/23 09:50:19;;;;;;;10.97;3.27;;;;;;;9.29;87.45;100309.66;5073363;28;20214;-73
2023/12/23 09:52:51;;;;;;;7.87;2.70;;;;;;;9.34;87.10;100304.66;5073206;28;20217;-73
2023/12/23 09:55:19;;;;;;;4.40;3.07;;;;;;;9.28;87.85;100312.47;5073624;28;20175;-73
2023/12/23 09:57:45;;;;;;;6.13;3.03;;;;;;;9.30;87.79;100316.63;5073270;28;20201;-73
2023/12/23 10:00:12;;;;;;;3.00;2.57;;;;;;;9.32;87.38;100313.84;5073463;28;20206;-73
2023/12/23 10:02:39;;;;;;;3.70;3.17;;;;;;;9.38;86.70;100311.38;5073721;28;20540;-73
2023/12/23 10:05:07;;;;;;;3.07;2.60;;;;;;;9.40;86.47;100308.56;5072950;28;20240;-73
2023/12/23 10:07:33;;;;;;;5.40;2.53;;;;;;;9.37;86.91;100316.88;5072045;28;20194;-73
2023/12/23 10:10:00;;;;;;;6.07;2.57;;;;;;;9.44;85.74;100308.09;5073330;28;20206;-73
2023/12/23 10:12:26;;;;;;;6.30;2.97;;;;;;;9.48;85.96;100324.63;5073199;28;20591;-73
2023/12/23 10:14:53;;;;;;;2.70;2.10;;;;;;;9.49;85.61;100324.50;5072906;28;20214;-73
2023/12/23 10:17:19;;;;;;;3.07;2.13;;;;;;;9.47;85.82;100323.78;5076162;28;20243;-73
2023/12/23 10:19:46;;;;;;;6.13;3.07;;;;;;;9.46;86.51;100322.09;5076914;28;20238;-73
2023/12/23 10:22:16;;;;;;;8.47;1.97;;;;;;;9.45;85.89;100327.63;5077010;28;20273;-73
2023/12/23 10:24:42;;;;;;;7.37;2.70;;;;;;;9.48;85.92;100336.16;5076961;28;20581;-73
2023/12/23 10:27:10;;;;;;;2.33;2.33;;;;;;;9.46;86.14;100332.78;5076641;28;20315;-73
2023/12/23 10:29:40;;;;;;;4.03;2.13;;;;;;;9.48;86.39;100321.97;5077074;28;20610;-74
2023/12/23 10:32:10;;;;;;;5.90;2.40;;;;;;;9.47;86.10;100317.63;5076605;28;20537;-74
2023/12/23 10:34:43;;;;;;;4.10;2.23;;;;;;;9.44;86.61;100328.59;5076835;28;20274;-73
2023/12/23 10:37:13;;;;;;;2.80;2.63;;;;;;;9.43;86.79;100317.09;5076454;28;20185;-74
2023/12/23 10:39:54;;;;;;;2.60;1.90;;;;;;;9.46;86.26;100314.09;5076446;28;20194;-74
2023/12/23 10:42:23;;;;;;;3.73;3.03;;;;;;;9.41;86.94;100315.59;5076915;28;20182;-74
2023/12/23 10:44:51;;;;;;;7.10;3.77;;;;;;;9.39;87.08;100310.38;5076514;28;20576;-74
2023/12/23 10:47:17;;;;;;;11.40;3.57;;;;;;;9.33;88.07;100332.38;5076237;28;20248;-73
2023/12/23 10:49:45;;;;;;;4.40;3.10;;;;;;;9.25;89.34;100334.94;5076144;28;20194;-74
2023/12/23 10:52:14;;;;;;;6.13;3.17;;;;;;;9.16;90.39;100347.34;5076872;28;20194;-74
2023/12/23 10:54:40;;;;;;;3.83;3.53;;;;;;;9.09;91.04;100329.44;5076208;28;20202;-73
2023/12/23 10:57:09;;;;;;;5.60;3.17;;;;;;;9.02;91.60;100339.03;5076044;28;20197;-74
2023/12/23 10:59:35;;;;;;;2.90;2.80;;;;;;;8.96;92.69;100334.31;5075924;28;20260;-74
2023/12/23 11:02:12;;;;;;;3.03;2.50;;;;;;;8.93;93.31;100343.47;5076204;28;20195;-75
2023/12/23 11:04:42;;;;;;;2.87;2.77;;;;;;;8.89;93.62;100355.41;5076258;28;20171;-76
2023/12/23 11:07:13;;;;;;;6.20;3.03;;;;;;;8.82;94.29;100359.69;5076315;28;20179;-73
2023/12/23 11:09:43;;;;;;;7.27;3.13;;;;;;;8.81;94.87;100338.50;5076041;28;20210;-73
2023/12/23 11:12:10;;;;;;;6.13;3.20;;;;;;;8.74;95.11;100340.94;5076079;28;20265;-75
2023/12/23 11:14:37;;;;;;;5.33;3.23;;;;;;;8.76;95.34;100338.09;5075921;28;20655;-75
2023/12/23 11:17:24;;;;;;;5.97;3.40;;;;;;;8.76;95.44;100338.09;5075584;28;20198;-76
2023/12/23 11:19:51;;;;;;;9.80;4.43;;;;;;;8.73;95.25;100349.06;5075581;28;20210;-76
2023/12/23 11:22:22;;;;;;;8.87;3.73;;;;;;;8.74;95.41;100340.94;5075841;28;20186;-73
2023/12/23 11:24:49;;;;;;;8.47;4.03;;;;;;;8.75;95.38;100358.56;5075858;28;20202;-73
2023/12/23 11:27:36;;;;;;;4.60;3.50;;;;;;;8.74;95.09;100354.25;5075008;28;20708;-73
2023/12/23 11:30:05;;;;;;;14.43;3.77;;;;;;;8.78;95.48;100357.44;5075658;28;20206;-73